Terminal Aerodrome Forecast
Issued by NWS Paducah, KY

Home | Current Version | Previous Version | Text Only | Print | Product List | Glossary On
Versions: 1 2 3 4 5 6 7 8 9 10 11 12 13 14
000
FTUS43 KPAH 202323
TAFPAH
TAF
KPAH 202323Z 2100/2124 VRB02KT P6SM VCTS SCT040CB BKN100
     FM210100 VRB02KT P6SM SCT100
     FM210600 VRB02KT 5SM BR FEW250
     FM211300 21004KT P6SM VCTS SCT030CB=

USA.gov is the U.S. government's official web portal to all federal, state and local government web resources and services.